createdAt,value
2023-05-10T00:00:19.273Z,0.40
2023-05-10T00:02:47.565Z,0.50
2023-05-10T00:05:15.675Z,0.47
2023-05-10T00:07:45.741Z,0.40
2023-05-10T00:10:14.211Z,0.70
2023-05-10T00:12:44.515Z,0.50
2023-05-10T00:15:12.877Z,0.47
2023-05-10T00:17:40.986Z,0.60
2023-05-10T00:20:09.662Z,0.40
2023-05-10T00:22:37.648Z,0.47
2023-05-10T00:25:07.165Z,0.60
2023-05-10T00:27:35.202Z,0.60
2023-05-10T00:30:05.122Z,0.47
2023-05-10T00:32:32.988Z,0.50
2023-05-10T00:35:01.256Z,0.57
2023-05-10T00:37:29.099Z,0.50
2023-05-10T00:39:57.170Z,0.40
2023-05-10T00:42:25.057Z,0.40
2023-05-10T00:44:55.183Z,0.30
2023-05-10T00:47:24.755Z,0.37
2023-05-10T00:49:53.568Z,0.27
2023-05-10T00:52:21.721Z,0.40
2023-05-10T00:54:50.105Z,0.30
2023-05-10T00:57:18.205Z,0.30
2023-05-10T00:59:46.410Z,0.50
2023-05-10T01:02:15.384Z,0.30
2023-05-10T01:04:45.463Z,0.40
2023-05-10T01:07:13.930Z,0.40
2023-05-10T01:09:41.898Z,0.50
2023-05-10T01:12:10.255Z,0.50
2023-05-10T01:14:38.435Z,0.40
2023-05-10T01:17:10.228Z,0.50
2023-05-10T01:19:39.193Z,0.50
2023-05-10T01:22:25.107Z,0.60
2023-05-10T01:25:29.867Z,0.70
2023-05-10T01:28:36.875Z,0.60
2023-05-10T01:31:28.823Z,0.63
2023-05-10T01:34:01.420Z,0.80
2023-05-10T01:36:37.364Z,0.90
2023-05-10T01:39:14.467Z,0.90
2023-05-10T01:41:50.065Z,1.10
2023-05-10T01:44:26.086Z,1.00
2023-05-10T01:47:00.105Z,1.03
2023-05-10T01:49:35.988Z,1.17
2023-05-10T01:52:10.567Z,1.00
2023-05-10T01:54:43.514Z,1.10
2023-05-10T01:57:13.210Z,1.40
2023-05-10T01:59:42.289Z,1.67
2023-05-10T02:02:13.115Z,1.30
2023-05-10T02:04:44.026Z,1.53
2023-05-10T02:07:13.697Z,1.80
2023-05-10T02:09:44.497Z,1.60
2023-05-10T02:12:15.823Z,1.80
2023-05-10T02:14:45.054Z,1.73
2023-05-10T02:17:14.148Z,1.60
2023-05-10T02:19:46.225Z,1.73
2023-05-10T02:22:14.913Z,1.97
2023-05-10T02:24:43.201Z,1.97
2023-05-10T02:27:12.982Z,2.03
2023-05-10T02:29:41.582Z,1.80
2023-05-10T02:32:11.959Z,2.07
2023-05-10T02:34:41.154Z,1.83
2023-05-10T02:37:11.707Z,1.60
2023-05-10T02:39:44.665Z,1.90
2023-05-10T02:42:19.746Z,1.60
2023-05-10T02:44:50.979Z,1.50
2023-05-10T02:47:19.721Z,1.50
2023-05-10T02:49:48.033Z,1.47
2023-05-10T02:52:23.696Z,1.77
2023-05-10T02:54:54.647Z,1.70
2023-05-10T02:57:28.583Z,1.77
2023-05-10T02:59:57.232Z,1.43
2023-05-10T03:02:25.267Z,1.87
2023-05-10T03:04:53.366Z,1.73
2023-05-10T03:07:23.252Z,1.60
2023-05-10T03:09:51.866Z,1.23
2023-05-10T03:12:29.347Z,1.37
2023-05-10T03:15:05.667Z,1.70
2023-05-10T03:17:41.650Z,1.70
2023-05-10T03:20:13.217Z,1.40
2023-05-10T03:22:46.836Z,1.47
2023-05-10T03:25:18.526Z,1.23
2023-05-10T03:27:47.932Z,1.47
2023-05-10T03:30:16.615Z,1.50
2023-05-10T03:32:44.825Z,1.23
2023-05-10T03:35:15.221Z,1.10
2023-05-10T03:37:44.489Z,1.20
2023-05-10T03:40:13.283Z,1.20
2023-05-10T03:42:43.611Z,1.27
2023-05-10T03:45:12.427Z,1.10
2023-05-10T03:47:40.405Z,1.50
2023-05-10T03:50:09.574Z,1.60
2023-05-10T03:52:39.884Z,1.67
2023-05-10T03:55:09.911Z,1.47
2023-05-10T03:57:38.215Z,1.60
2023-05-10T04:00:08.716Z,1.40
2023-05-10T04:02:43.268Z,1.40
2023-05-10T04:05:17.063Z,1.50
2023-05-10T04:07:45.855Z,1.30
2023-05-10T04:10:15.282Z,1.37
2023-05-10T04:12:43.425Z,1.23
2023-05-10T04:15:12.001Z,1.37
2023-05-10T04:17:39.956Z,1.27
2023-05-10T04:20:09.604Z,1.33
2023-05-10T04:22:37.482Z,1.47
2023-05-10T04:25:06.274Z,1.23
2023-05-10T04:27:35.864Z,0.90
2023-05-10T04:30:04.154Z,0.87
2023-05-10T04:32:32.359Z,1.10
2023-05-10T04:35:00.566Z,0.83
2023-05-10T04:37:28.622Z,1.23
2023-05-10T04:39:56.733Z,0.70
2023-05-10T04:42:24.616Z,0.80
2023-05-10T04:44:53.989Z,0.83
2023-05-10T04:47:22.093Z,0.80
2023-05-10T04:49:49.970Z,0.70
2023-05-10T04:52:18.884Z,0.80
2023-05-10T04:54:47.046Z,0.63
2023-05-10T04:57:14.866Z,0.70
2023-05-10T04:59:43.625Z,0.67
2023-05-10T05:02:12.884Z,0.80
2023-05-10T05:04:40.899Z,0.90
2023-05-10T05:07:08.718Z,0.80
2023-05-10T05:09:37.132Z,0.80
2023-05-10T05:12:07.156Z,0.90
2023-05-10T05:14:35.150Z,0.80
2023-05-10T05:17:03.192Z,1.00
2023-05-10T05:19:33.242Z,0.90
2023-05-10T05:22:01.275Z,0.93
2023-05-10T05:24:29.445Z,1.03
2023-05-10T05:26:57.301Z,1.27
2023-05-10T05:29:25.308Z,1.23
2023-05-10T05:31:55.375Z,1.30
2023-05-10T05:34:23.532Z,1.10
2023-05-10T05:36:53.038Z,1.30
2023-05-10T05:39:20.945Z,1.20
2023-05-10T05:41:48.977Z,1.67
2023-05-10T05:44:16.981Z,1.23
2023-05-10T05:46:45.054Z,1.60
2023-05-10T05:49:13.303Z,1.70
2023-05-10T05:51:41.139Z,1.37
2023-05-10T05:54:10.436Z,1.60
2023-05-10T05:56:38.917Z,1.53
2023-05-10T05:59:06.870Z,1.87
2023-05-10T06:01:34.863Z,2.03
2023-05-10T06:04:03.487Z,2.27
2023-05-10T06:06:33.175Z,2.27
2023-05-10T06:09:01.477Z,2.37
2023-05-10T06:11:31.848Z,2.37
2023-05-10T06:14:00.295Z,2.20
2023-05-10T06:16:28.940Z,2.33
2023-05-10T06:18:57.365Z,2.53
2023-05-10T06:21:25.432Z,2.53
2023-05-10T06:23:53.414Z,2.63
2023-05-10T06:26:21.806Z,2.97
2023-05-10T06:28:51.183Z,2.77
2023-05-10T06:31:19.401Z,2.83
2023-05-10T06:33:47.438Z,2.87
2023-05-10T06:36:15.580Z,3.10
2023-05-10T06:38:43.492Z,3.53
2023-05-10T06:41:11.802Z,2.87
2023-05-10T06:43:42.269Z,3.20
2023-05-10T06:46:11.643Z,3.33
2023-05-10T06:48:39.461Z,2.97
2023-05-10T06:51:07.490Z,3.13
2023-05-10T06:53:35.526Z,3.17
2023-05-10T06:56:04.488Z,3.30
2023-05-10T06:58:33.876Z,3.77
2023-05-10T07:01:06.020Z,3.30
2023-05-10T07:03:35.899Z,2.47
2023-05-10T07:06:05.089Z,2.60
2023-05-10T07:08:33.753Z,2.47
2023-05-10T07:11:02.924Z,1.83
2023-05-10T07:13:31.160Z,1.87
2023-05-10T07:15:59.318Z,1.67
2023-05-10T07:18:27.749Z,1.57
2023-05-10T07:20:57.094Z,1.27
2023-05-10T07:23:25.181Z,1.43
2023-05-10T07:25:54.319Z,1.63
2023-05-10T07:28:22.969Z,1.60
2023-05-10T07:30:50.888Z,1.90
2023-05-10T07:33:19.089Z,2.20
2023-05-10T07:35:47.056Z,2.03
2023-05-10T07:38:16.864Z,2.60
2023-05-10T07:40:44.731Z,2.57
2023-05-10T07:43:12.795Z,2.80
2023-05-10T07:45:40.736Z,3.27
2023-05-10T07:48:09.147Z,3.80
2023-05-10T07:50:37.185Z,4.10
2023-05-10T07:53:05.188Z,4.33
2023-05-10T07:55:35.073Z,4.57
2023-05-10T07:58:03.610Z,4.93
2023-05-10T08:00:31.585Z,4.80
2023-05-10T08:02:59.991Z,4.63
2023-05-10T08:05:27.970Z,5.50
2023-05-10T08:07:55.840Z,4.93
2023-05-10T08:10:24.278Z,4.73
2023-05-10T08:12:53.816Z,5.47
2023-05-10T08:15:21.861Z,5.23
2023-05-10T08:17:49.980Z,4.90
2023-05-10T08:20:20.012Z,5.33
2023-05-10T08:22:49.905Z,5.03
2023-05-10T08:25:19.727Z,5.50
2023-05-10T08:27:47.811Z,5.13
2023-05-10T08:30:17.383Z,5.33
2023-05-10T08:32:45.230Z,6.17
2023-05-10T08:35:13.408Z,5.83
2023-05-10T08:37:41.292Z,5.87
2023-05-10T08:40:13.542Z,5.27
2023-05-10T08:42:45.281Z,5.70
2023-05-10T08:45:14.392Z,5.57
2023-05-10T08:47:44.094Z,5.20
2023-05-10T08:50:13.476Z,5.03
2023-05-10T08:52:43.193Z,5.13
2023-05-10T08:55:11.512Z,5.13
2023-05-10T08:57:39.530Z,4.80
2023-05-10T09:00:09.944Z,5.10
2023-05-10T09:02:39.469Z,4.67
2023-05-10T09:05:11.576Z,4.47
2023-05-10T09:07:39.771Z,4.60
2023-05-10T09:10:10.788Z,4.50
2023-05-10T09:12:38.803Z,3.73
2023-05-10T09:15:09.201Z,3.87
2023-05-10T09:17:38.051Z,3.73
2023-05-10T09:20:09.150Z,3.43
2023-05-10T09:22:37.126Z,3.97
2023-05-10T09:25:09.518Z,3.30
2023-05-10T09:27:37.958Z,3.00
2023-05-10T09:30:07.503Z,2.63
2023-05-10T09:32:39.800Z,3.13
2023-05-10T09:35:14.703Z,2.63
2023-05-10T09:37:45.450Z,3.03
2023-05-10T09:40:16.127Z,2.67
2023-05-10T09:42:52.711Z,2.40
2023-05-10T09:45:20.871Z,2.40
2023-05-10T09:47:48.898Z,2.83
2023-05-10T09:50:18.402Z,2.67
2023-05-10T09:52:51.357Z,2.27
2023-05-10T09:55:20.781Z,2.47
2023-05-10T09:57:49.901Z,2.07
2023-05-10T10:00:21.014Z,2.17
2023-05-10T10:02:55.846Z,2.00
2023-05-10T10:05:30.475Z,2.20
2023-05-10T10:07:59.318Z,2.20
2023-05-10T10:10:27.280Z,1.80
2023-05-10T10:12:55.532Z,1.77
2023-05-10T10:15:24.562Z,1.90
2023-05-10T10:17:53.660Z,1.50
2023-05-10T10:20:23.322Z,1.73
2023-05-10T10:22:52.591Z,1.70
2023-05-10T10:25:23.010Z,1.90
2023-05-10T10:28:13.115Z,1.70
2023-05-10T10:30:44.667Z,1.50
2023-05-10T10:33:30.384Z,1.73
2023-05-10T10:36:01.450Z,1.60
2023-05-10T10:39:00.243Z,1.83
2023-05-10T10:41:33.732Z,1.40
2023-05-10T10:44:39.100Z,1.93
2023-05-10T10:47:30.049Z,0.87
2023-05-10T10:50:08.960Z,0.90
2023-05-10T10:52:38.332Z,0.90
2023-05-10T10:55:10.114Z,0.73
2023-05-10T10:57:52.971Z,0.87
2023-05-10T11:00:29.449Z,0.80
2023-05-10T11:03:00.687Z,0.83
2023-05-10T11:05:37.857Z,0.87
2023-05-10T11:08:13.864Z,0.80
2023-05-10T11:11:11.208Z,0.50
2023-05-10T11:13:44.167Z,0.60
2023-05-10T11:16:14.473Z,0.40
2023-05-10T11:18:43.010Z,0.67
2023-05-10T11:21:12.446Z,0.60
2023-05-10T11:23:51.771Z,0.50
2023-05-10T11:26:24.240Z,0.63
2023-05-10T11:28:54.623Z,0.50
2023-05-10T11:31:23.076Z,0.50
2023-05-10T11:33:52.722Z,0.40
2023-05-10T11:36:22.382Z,0.50
2023-05-10T11:38:51.014Z,0.70
2023-05-10T11:41:22.745Z,0.60
2023-05-10T11:43:53.500Z,0.73
2023-05-10T11:46:23.004Z,0.57
2023-05-10T11:48:52.837Z,0.70
2023-05-10T11:51:23.563Z,0.80
2023-05-10T11:53:52.679Z,0.90
2023-05-10T11:56:22.661Z,0.83
2023-05-10T11:58:56.347Z,1.10
2023-05-10T12:01:25.492Z,1.10
2023-05-10T12:03:56.095Z,0.93
2023-05-10T12:06:24.469Z,0.90
2023-05-10T12:08:54.898Z,0.93
2023-05-10T12:11:27.230Z,1.27
2023-05-10T12:13:56.321Z,1.13
2023-05-10T12:16:25.660Z,1.23
2023-05-10T12:18:54.996Z,1.23
2023-05-10T12:21:23.625Z,1.27
2023-05-10T12:23:53.950Z,1.30
2023-05-10T12:26:27.310Z,1.33
2023-05-10T12:28:55.687Z,1.10
2023-05-10T12:31:23.615Z,1.07
2023-05-10T12:33:51.725Z,1.40
2023-05-10T12:36:26.291Z,1.47
2023-05-10T12:39:05.616Z,1.47
2023-05-10T12:41:35.111Z,1.40
2023-05-10T12:44:03.056Z,1.93
2023-05-10T12:46:31.144Z,2.27
2023-05-10T12:49:08.533Z,2.03
2023-05-10T12:51:37.747Z,2.40
2023-05-10T12:54:05.938Z,2.23
2023-05-10T12:56:35.233Z,2.70
2023-05-10T12:59:03.636Z,3.60
2023-05-10T13:01:31.622Z,3.00
2023-05-10T13:04:01.089Z,3.50
2023-05-10T13:06:29.099Z,3.53
2023-05-10T13:08:58.631Z,4.20
2023-05-10T13:11:26.663Z,3.90
2023-05-10T13:13:56.486Z,3.60
2023-05-10T13:16:24.727Z,4.07
2023-05-10T13:18:52.757Z,3.90
2023-05-10T13:21:21.187Z,4.50
2023-05-10T13:23:49.113Z,3.63
2023-05-10T13:26:17.129Z,3.40
2023-05-10T13:28:46.919Z,3.80
2023-05-10T13:31:16.464Z,4.00
2023-05-10T13:33:44.564Z,3.60
2023-05-10T13:36:12.699Z,3.80
2023-05-10T13:38:40.595Z,4.30
2023-05-10T13:41:08.853Z,4.00
2023-05-10T13:43:36.996Z,3.70
2023-05-10T13:46:05.306Z,3.47
2023-05-10T13:48:35.721Z,3.57
2023-05-10T13:51:05.822Z,4.27
2023-05-10T13:53:33.809Z,3.70
2023-05-10T13:56:09.136Z,3.57
2023-05-10T13:58:37.554Z,3.67
2023-05-10T14:01:05.683Z,3.90
2023-05-10T14:03:35.220Z,3.80
2023-05-10T14:06:03.466Z,4.03
2023-05-10T14:08:31.658Z,3.60
2023-05-10T14:10:59.580Z,3.70
2023-05-10T14:13:27.708Z,3.53
2023-05-10T14:15:56.722Z,3.63
2023-05-10T14:18:24.738Z,4.03
2023-05-10T14:20:54.332Z,3.63
2023-05-10T14:23:25.046Z,3.30
2023-05-10T14:25:53.315Z,3.57
2023-05-10T14:28:21.988Z,3.80
2023-05-10T14:30:50.063Z,3.63
2023-05-10T14:33:18.969Z,3.60
2023-05-10T14:35:47.583Z,3.43
2023-05-10T14:38:17.295Z,3.03
2023-05-10T14:40:45.140Z,3.50
2023-05-10T14:43:13.261Z,3.10
2023-05-10T14:45:41.308Z,3.20
2023-05-10T14:48:12.215Z,2.70
2023-05-10T14:50:40.602Z,3.00
2023-05-10T14:53:08.914Z,3.23
2023-05-10T14:55:39.200Z,3.20
2023-05-10T14:58:07.460Z,3.70
2023-05-10T15:00:35.360Z,3.00
2023-05-10T15:03:04.479Z,3.20
2023-05-10T15:05:33.167Z,3.10
2023-05-10T15:08:01.439Z,2.60
2023-05-10T15:10:29.549Z,2.80
2023-05-10T15:12:58.938Z,3.17
2023-05-10T15:15:26.957Z,3.40
2023-05-10T15:17:55.072Z,3.17
2023-05-10T15:20:22.989Z,2.50
2023-05-10T15:22:51.172Z,2.50
2023-05-10T15:25:19.250Z,2.07
2023-05-10T15:27:48.681Z,1.90
2023-05-10T15:30:18.021Z,1.60
2023-05-10T15:32:46.201Z,1.47
2023-05-10T15:35:14.743Z,1.27
2023-05-10T15:37:42.764Z,1.10
2023-05-10T15:40:11.514Z,1.20
2023-05-10T15:42:39.664Z,1.67
2023-05-10T15:45:08.772Z,1.20
2023-05-10T15:47:40.303Z,1.30
2023-05-10T15:50:08.754Z,1.20
2023-05-10T15:52:37.174Z,1.60
2023-05-10T15:55:12.487Z,1.30
2023-05-10T15:57:41.418Z,1.40
2023-05-10T16:00:11.194Z,1.10
2023-05-10T16:02:43.685Z,1.57
2023-05-10T16:05:11.975Z,1.37
2023-05-10T16:07:40.404Z,1.53
2023-05-10T16:10:10.530Z,1.20
2023-05-10T16:12:40.503Z,1.30
2023-05-10T16:15:09.543Z,1.20
2023-05-10T16:17:37.732Z,0.90
2023-05-10T16:20:08.716Z,0.97
2023-05-10T16:22:36.968Z,0.90
2023-05-10T16:25:05.425Z,0.90
2023-05-10T16:27:33.677Z,0.80
2023-05-10T16:30:01.705Z,0.70
2023-05-10T16:32:29.969Z,1.13
2023-05-10T16:34:57.827Z,0.90
2023-05-10T16:37:27.588Z,0.97
2023-05-10T16:39:55.711Z,0.90
2023-05-10T16:42:25.173Z,1.10
2023-05-10T16:44:53.157Z,1.00
2023-05-10T16:47:21.201Z,0.97
2023-05-10T16:49:49.257Z,0.90
2023-05-10T16:52:17.275Z,1.17
2023-05-10T16:54:46.589Z,1.20
2023-05-10T16:57:14.639Z,1.20
2023-05-10T16:59:42.774Z,0.90
2023-05-10T17:02:10.904Z,1.30
2023-05-10T17:04:38.985Z,1.30
2023-05-10T17:07:06.899Z,1.00
2023-05-10T17:09:34.920Z,1.13
2023-05-10T17:12:04.185Z,0.90
2023-05-10T17:14:32.339Z,1.03
2023-05-10T17:17:00.263Z,1.23
2023-05-10T17:19:28.439Z,1.77
2023-05-10T17:21:56.250Z,1.57
2023-05-10T17:24:24.300Z,1.30
2023-05-10T17:26:52.183Z,1.57
2023-05-10T17:29:21.560Z,1.30
2023-05-10T17:31:49.499Z,1.10
2023-05-10T17:34:17.505Z,1.30
2023-05-10T17:36:45.529Z,2.00
2023-05-10T17:39:13.416Z,1.80
2023-05-10T17:41:41.935Z,2.10
2023-05-10T17:44:10.059Z,2.77
2023-05-10T17:46:39.477Z,2.20
2023-05-10T17:49:07.369Z,1.50
2023-05-10T17:51:35.460Z,1.20
2023-05-10T17:54:03.528Z,1.03
2023-05-10T17:56:31.381Z,1.40
2023-05-10T17:58:59.487Z,1.50
2023-05-10T18:01:27.574Z,1.43
2023-05-10T18:03:57.203Z,2.10
2023-05-10T18:06:25.210Z,6.20
2023-05-10T18:08:53.146Z,4.63
2023-05-10T18:11:21.999Z,3.17
2023-05-10T18:13:49.995Z,4.03
2023-05-10T18:16:18.149Z,3.67
2023-05-10T18:18:46.076Z,2.57
2023-05-10T18:21:15.669Z,2.20
2023-05-10T18:23:43.733Z,1.93
2023-05-10T18:26:12.897Z,1.80
2023-05-10T18:28:41.822Z,2.00
2023-05-10T18:31:09.765Z,1.40
2023-05-10T18:33:37.935Z,1.90
2023-05-10T18:36:06.812Z,1.17
2023-05-10T18:38:36.298Z,1.50
2023-05-10T18:41:04.615Z,1.17
2023-05-10T18:43:33.956Z,1.13
2023-05-10T18:46:02.145Z,1.43
2023-05-10T18:48:30.022Z,1.13
2023-05-10T18:50:58.688Z,1.17
2023-05-10T18:53:26.713Z,1.17
2023-05-10T18:55:59.778Z,1.20
2023-05-10T18:58:29.433Z,1.13
2023-05-10T19:00:58.760Z,1.40
2023-05-10T19:03:26.789Z,1.07
2023-05-10T19:05:54.748Z,1.20
2023-05-10T19:08:23.059Z,1.30
2023-05-10T19:10:51.208Z,1.30
2023-05-10T19:13:20.471Z,1.30
2023-05-10T19:15:48.537Z,1.10
2023-05-10T19:18:16.810Z,1.37
2023-05-10T19:20:44.766Z,1.43
2023-05-10T19:23:12.717Z,1.70
2023-05-10T19:25:42.243Z,1.97
2023-05-10T19:28:10.461Z,1.90
2023-05-10T19:30:39.896Z,1.97
2023-05-10T19:33:10.300Z,1.83
2023-05-10T19:35:38.378Z,2.87
2023-05-10T19:38:06.303Z,2.00
2023-05-10T19:40:34.773Z,2.10
2023-05-10T19:43:03.057Z,1.90
2023-05-10T19:45:31.383Z,1.90
2023-05-10T19:48:01.443Z,1.70
2023-05-10T19:50:29.900Z,1.70
2023-05-10T19:52:59.448Z,1.70
2023-05-10T19:55:29.820Z,1.60
2023-05-10T19:57:58.448Z,1.60
2023-05-10T20:00:27.274Z,1.57
2023-05-10T20:02:55.758Z,1.77
2023-05-10T20:05:25.647Z,2.70
2023-05-10T20:07:54.678Z,2.20
2023-05-10T20:10:25.162Z,2.60
2023-05-10T20:12:54.920Z,2.20
2023-05-10T20:15:24.165Z,2.07
2023-05-10T20:17:53.707Z,2.37
2023-05-10T20:20:22.743Z,2.57
2023-05-10T20:22:52.289Z,2.40
2023-05-10T20:25:20.594Z,2.37
2023-05-10T20:27:50.756Z,2.30
2023-05-10T20:30:18.898Z,2.20
2023-05-10T20:32:47.099Z,2.33
2023-05-10T20:35:15.453Z,2.40
2023-05-10T20:37:43.433Z,2.40
2023-05-10T20:40:13.640Z,2.07
2023-05-10T20:42:41.690Z,2.20
2023-05-10T20:45:10.883Z,2.07
2023-05-10T20:47:38.955Z,2.13
2023-05-10T20:50:07.981Z,2.40
2023-05-10T20:52:36.043Z,2.30
2023-05-10T20:55:03.961Z,2.27
2023-05-10T20:57:33.153Z,2.47
2023-05-10T21:00:01.515Z,2.60
2023-05-10T21:02:29.405Z,2.53
2023-05-10T21:04:58.244Z,2.23
2023-05-10T21:07:26.532Z,2.37
2023-05-10T21:09:54.801Z,2.63
2023-05-10T21:12:22.679Z,2.70
2023-05-10T21:14:51.949Z,2.57
2023-05-10T21:17:20.437Z,2.63
2023-05-10T21:19:48.381Z,2.30
2023-05-10T21:22:16.600Z,2.87
2023-05-10T21:24:44.826Z,2.60
2023-05-10T21:27:13.096Z,2.60
2023-05-10T21:29:40.963Z,2.83
2023-05-10T21:32:10.750Z,2.60
2023-05-10T21:34:38.734Z,2.70
2023-05-10T21:37:06.894Z,3.17
2023-05-10T21:39:34.891Z,2.60
2023-05-10T21:42:03.519Z,3.17
2023-05-10T21:44:32.194Z,2.43
2023-05-10T21:47:00.189Z,2.70
2023-05-10T21:49:29.662Z,3.10
2023-05-10T21:51:57.548Z,3.83
2023-05-10T21:54:25.896Z,3.57
2023-05-10T21:56:53.827Z,3.53
2023-05-10T21:59:22.442Z,3.40
2023-05-10T22:01:50.707Z,3.17
2023-05-10T22:04:18.594Z,2.97
2023-05-10T22:06:49.086Z,3.20
2023-05-10T22:09:17.839Z,3.20
2023-05-10T22:11:46.194Z,3.07
2023-05-10T22:14:14.128Z,3.37
2023-05-10T22:16:42.316Z,3.00
2023-05-10T22:19:10.374Z,3.10
2023-05-10T22:21:38.369Z,3.10
2023-05-10T22:24:08.290Z,3.07
2023-05-10T22:26:36.386Z,3.30
2023-05-10T22:29:04.463Z,3.40
2023-05-10T22:31:32.620Z,3.57
2023-05-10T22:34:00.636Z,3.40
2023-05-10T22:36:28.950Z,3.70
2023-05-10T22:38:57.043Z,3.60
2023-05-10T22:41:26.392Z,3.87
2023-05-10T22:43:54.405Z,3.77
2023-05-10T22:46:22.690Z,3.33
2023-05-10T22:48:50.676Z,3.70
2023-05-10T22:51:18.864Z,3.37
2023-05-10T22:53:46.752Z,4.13
2023-05-10T22:56:14.892Z,4.53
2023-05-10T22:58:44.189Z,4.43
2023-05-10T23:01:12.270Z,4.93
2023-05-10T23:03:40.254Z,4.70
2023-05-10T23:06:08.353Z,4.60
2023-05-10T23:08:36.470Z,4.40
2023-05-10T23:11:04.528Z,4.87
2023-05-10T23:13:32.862Z,4.77
2023-05-10T23:16:07.498Z,5.17
2023-05-10T23:18:35.935Z,4.93
2023-05-10T23:21:03.865Z,4.67
2023-05-10T23:23:33.923Z,4.33
2023-05-10T23:26:02.337Z,4.23
2023-05-10T23:28:30.306Z,4.80
2023-05-10T23:30:58.922Z,4.90
2023-05-10T23:33:28.128Z,4.83
2023-05-10T23:35:56.267Z,4.40
2023-05-10T23:38:24.205Z,4.83
2023-05-10T23:40:52.331Z,5.00
2023-05-10T23:43:21.714Z,4.60
2023-05-10T23:45:56.676Z,4.93
2023-05-10T23:48:24.764Z,3.93
2023-05-10T23:50:54.285Z,4.53
2023-05-10T23:53:22.284Z,3.87
2023-05-10T23:55:50.429Z,4.13
2023-05-10T23:58:18.377Z,4.13
